Main page
METAR-TAF:

METAR-TAF

Airports :

Perpignan–Rivesaltes Airport

Perpignan, France

latitude: 42-44N, longitude: 002-52E, elevation: 43 m

Current weather observation

The report was made 29 minutes ago, at 12:30 UTC
Wind 14 kt from the Northwest with gusts up to 25 kt, varying between West/Northwest and North
Temperature 32°C
Humidity 29%
Pressure 1017 hPa
Visibility 10 km or more
no clouds below 1500 m and no cumulonimbus

METAR: LFMP 201230Z AUTO 32014G25KT 290V350 CAVOK 32/12 Q1017 NOSIG

Time: 14:59 (12:59 UTC)

Forecast

The report was made 4 hours and 59 minutes ago, at 08:00 UTC
Forecast valid from 20 at 09 UTC to 21 at 09 UTC
Wind 12 kt from the Northwest
Visibility 10 km or more
no clouds below 1500 m and no cumulonimbus
Temporary
from 20 at 09 UTC to 20 at 14 UTC
Wind 20 kt from the Northwest with gusts up to 30 kt

TAF: LFMP 200800Z 2009/2109 32012KT CAVOK TEMPO 2009/2014 32020G30KT

Weather observations and forecasts of more than 4000 airports (METAR and TAF reports).

The available stations are represented by yellow and red dots on the map.

Hover mouse over dot to see the name of the station.

Then click to see weather observations and forecasts.

To change the map : click on the green buttons with a black cross to zoom in, on the green button with a dash to zoom out, or on the green arrows for adjacent maps.


METAR-TAF: